Main page
METAR-TAF:

METAR-TAF

Airports :

Leuchars Station

Leuchars, Scotland

latitude: 56-23N, longitude: 002-52W, elevation: 12 m

Current weather observation

The report was made 42 minutes ago, at 12:50 UTC
Wind 5 kt from the South
Temperature 14°C
Humidity 58%
Pressure 1013 hPa
Visibility 10 km or more
no clouds below 1500 m and no cumulonimbus

METAR: EGQL 151250Z 17005KT CAVOK 14/06 Q1013 BLU

Time: 13:32 (13:32 UTC)

Forecast

The report was made 3 hours and 10 minutes ago, at 10:22 UTC
Forecast valid from 15 at 12 UTC to 15 at 21 UTC
Wind 8 kt from the South
Visibility 10 km or more
Few clouds at a height of 1800 ft
Probability 40% :
Temporary
from 15 at 12 UTC to 15 at 21 UTC
Wind 16 kt from the South/Southwest with gusts up to 26 kt
Probability 30% :
Temporary
from 15 at 19 UTC to 15 at 21 UTC
Visibility: 6000 m
Scattered clouds at a height of 1800 ft
rain

TAF: EGQL 151022Z 1512/1521 18008KT 9999 FEW018 PROB40 TEMPO 1512/1521 20016G26KT PROB30 TEMPO 1519/1521 6000 RA SCT018

Weather observations and forecasts of more than 4000 airports (METAR and TAF reports).

The available stations are represented by yellow and red dots on the map.

Hover mouse over dot to see the name of the station.

Then click to see weather observations and forecasts.

To change the map : click on the green buttons with a black cross to zoom in, on the green button with a dash to zoom out, or on the green arrows for adjacent maps.


METAR-TAF: